createdAt,value
2023-03-20T00:00:50.453Z,11.81
2023-03-20T00:03:18.041Z,11.82
2023-03-20T00:05:46.986Z,11.85
2023-03-20T00:08:14.560Z,11.85
2023-03-20T00:10:44.199Z,11.84
2023-03-20T00:13:16.787Z,11.84
2023-03-20T00:15:45.105Z,11.71
2023-03-20T00:18:16.400Z,11.75
2023-03-20T00:20:43.889Z,11.71
2023-03-20T00:23:13.026Z,11.66
2023-03-20T00:25:42.265Z,11.48
2023-03-20T00:28:37.433Z,11.44
2023-03-20T00:31:06.679Z,11.24
2023-03-20T00:33:34.962Z,11.12
2023-03-20T00:36:02.698Z,10.89
2023-03-20T00:38:31.533Z,10.93
2023-03-20T00:40:59.069Z,10.86
2023-03-20T00:43:26.555Z,10.87
2023-03-20T00:45:54.253Z,10.83
2023-03-20T00:48:22.037Z,10.78
2023-03-20T00:50:49.874Z,10.67
2023-03-20T00:53:17.356Z,10.64
2023-03-20T00:55:46.386Z,10.64
2023-03-20T00:58:14.295Z,10.56
2023-03-20T01:00:43.126Z,10.40
2023-03-20T01:03:17.858Z,10.41
2023-03-20T01:05:46.421Z,10.34
2023-03-20T01:08:16.211Z,10.23
2023-03-20T01:10:45.056Z,10.16
2023-03-20T01:13:21.412Z,10.14
2023-03-20T01:15:50.495Z,10.06
2023-03-20T01:18:19.782Z,9.99
2023-03-20T01:20:47.590Z,9.92
2023-03-20T01:23:16.074Z,9.80
2023-03-20T01:25:43.797Z,9.90
2023-03-20T01:28:18.407Z,9.73
2023-03-20T01:30:47.183Z,9.46
2023-03-20T01:33:17.038Z,9.26
2023-03-20T01:35:45.520Z,9.34
2023-03-20T01:38:14.870Z,9.43
2023-03-20T01:40:51.573Z,9.51
2023-03-20T01:43:22.651Z,9.41
2023-03-20T01:46:03.751Z,9.30
2023-03-20T01:48:56.876Z,9.20
2023-03-20T01:51:25.893Z,9.14
2023-03-20T01:53:59.578Z,9.08
2023-03-20T01:56:31.426Z,8.72
2023-03-20T01:59:04.729Z,8.86
2023-03-20T02:01:33.225Z,8.97
2023-03-20T02:04:01.223Z,8.75
2023-03-20T02:06:29.239Z,8.62
2023-03-20T02:08:56.710Z,8.70
2023-03-20T02:11:25.606Z,8.65
2023-03-20T02:13:55.887Z,8.76
2023-03-20T02:16:24.715Z,8.90
2023-03-20T02:18:56.153Z,8.99
2023-03-20T02:21:49.554Z,8.95
2023-03-20T02:25:15.446Z,8.88
2023-03-20T02:27:58.702Z,8.78
2023-03-20T02:30:43.982Z,8.74
2023-03-20T02:33:50.892Z,8.70
2023-03-20T02:37:06.824Z,8.31
2023-03-20T02:39:52.519Z,8.60
2023-03-20T02:42:30.458Z,8.53
2023-03-20T02:45:08.883Z,8.60
2023-03-20T02:47:42.835Z,8.56
2023-03-20T02:50:17.464Z,8.31
2023-03-20T02:52:49.933Z,8.45
2023-03-20T02:55:25.107Z,8.51
2023-03-20T02:58:00.580Z,8.73
2023-03-20T03:00:33.477Z,8.80
2023-03-20T03:03:07.975Z,8.86
2023-03-20T03:05:39.781Z,8.78
2023-03-20T03:08:10.947Z,8.72
2023-03-20T03:10:44.981Z,8.53
2023-03-20T03:13:16.819Z,8.38
2023-03-20T03:15:47.814Z,7.96
2023-03-20T03:18:20.066Z,8.33
2023-03-20T03:20:51.267Z,8.34
2023-03-20T03:23:27.428Z,8.66
2023-03-20T03:25:58.921Z,8.45
2023-03-20T03:28:36.933Z,8.84
2023-03-20T03:31:08.193Z,9.09
2023-03-20T03:33:39.952Z,9.21
2023-03-20T03:36:16.143Z,9.23
2023-03-20T03:38:51.364Z,9.35
2023-03-20T03:41:30.132Z,8.00
2023-03-20T03:44:05.811Z,7.38
2023-03-20T03:46:44.558Z,7.46
2023-03-20T03:49:17.304Z,7.49
2023-03-20T03:51:47.649Z,8.20
2023-03-20T03:54:19.318Z,8.62
2023-03-20T03:56:51.135Z,8.95
2023-03-20T03:59:26.052Z,9.30
2023-03-20T04:01:55.458Z,9.72
2023-03-20T04:04:24.832Z,9.72
2023-03-20T04:06:52.594Z,10.03
2023-03-20T04:09:20.178Z,9.28
2023-03-20T04:11:51.788Z,9.19
2023-03-20T04:14:19.398Z,9.25
2023-03-20T04:16:47.414Z,9.39
2023-03-20T04:19:14.936Z,9.00
2023-03-20T04:21:42.434Z,9.44
2023-03-20T04:24:10.026Z,9.12
2023-03-20T04:26:37.902Z,9.81
2023-03-20T04:29:06.738Z,10.62
2023-03-20T04:31:34.262Z,10.01
2023-03-20T04:34:01.759Z,9.31
2023-03-20T04:36:29.473Z,8.71
2023-03-20T04:38:57.749Z,8.68
2023-03-20T04:41:25.326Z,8.82
2023-03-20T04:43:52.820Z,9.28
2023-03-20T04:46:21.654Z,10.13
2023-03-20T04:48:49.166Z,10.78
2023-03-20T04:51:16.646Z,9.56
2023-03-20T04:53:44.154Z,10.51
2023-03-20T04:56:11.632Z,10.27
2023-03-20T04:58:39.087Z,10.36
2023-03-20T05:01:06.897Z,10.81
2023-03-20T05:03:35.796Z,10.92
2023-03-20T05:06:03.345Z,11.06
2023-03-20T05:08:30.960Z,11.18
2023-03-20T05:10:58.435Z,11.17
2023-03-20T05:13:25.984Z,10.84
2023-03-20T05:15:53.467Z,10.72
2023-03-20T05:18:21.202Z,10.90
2023-03-20T05:20:51.734Z,11.11
2023-03-20T05:23:19.215Z,11.17
2023-03-20T05:25:46.699Z,11.28
2023-03-20T05:28:14.244Z,10.95
2023-03-20T05:30:41.765Z,11.01
2023-03-20T05:33:09.342Z,11.12
2023-03-20T05:35:37.036Z,11.04
2023-03-20T05:38:05.971Z,11.01
2023-03-20T05:40:33.441Z,11.09
2023-03-20T05:43:01.070Z,11.03
2023-03-20T05:45:28.782Z,10.50
2023-03-20T05:47:56.406Z,10.66
2023-03-20T05:50:23.894Z,10.79
2023-03-20T05:52:51.391Z,10.57
2023-03-20T05:55:20.314Z,10.71
2023-03-20T05:57:47.824Z,10.58
2023-03-20T06:00:16.509Z,10.85
2023-03-20T06:02:46.155Z,11.16
2023-03-20T06:05:14.813Z,10.32
2023-03-20T06:07:42.277Z,10.32
2023-03-20T06:10:11.111Z,10.96
2023-03-20T06:12:39.966Z,10.10
2023-03-20T06:15:08.449Z,9.46
2023-03-20T06:17:35.932Z,9.06
2023-03-20T06:20:03.494Z,8.85
2023-03-20T06:22:30.964Z,8.70
2023-03-20T06:24:58.414Z,9.03
2023-03-20T06:27:27.151Z,9.43
2023-03-20T06:29:56.061Z,9.52
2023-03-20T06:32:23.741Z,9.47
2023-03-20T06:34:51.279Z,9.87
2023-03-20T06:37:19.972Z,10.03
2023-03-20T06:39:47.447Z,10.70
2023-03-20T06:42:16.251Z,10.84
2023-03-20T06:44:43.864Z,10.92
2023-03-20T06:47:12.666Z,10.91
2023-03-20T06:49:40.136Z,11.29
2023-03-20T06:52:08.943Z,11.58
2023-03-20T06:54:36.518Z,11.05
2023-03-20T06:57:03.989Z,10.85
2023-03-20T06:59:31.449Z,10.10
2023-03-20T07:01:59.186Z,9.78
2023-03-20T07:04:28.013Z,9.37
2023-03-20T07:06:56.027Z,9.40
2023-03-20T07:09:23.562Z,9.50
2023-03-20T07:11:51.168Z,9.31
2023-03-20T07:14:18.644Z,9.16
2023-03-20T07:16:46.221Z,9.23
2023-03-20T07:19:14.073Z,9.29
2023-03-20T07:21:43.231Z,9.49
2023-03-20T07:24:10.714Z,9.33
2023-03-20T07:26:38.567Z,9.87
2023-03-20T07:29:06.079Z,10.05
2023-03-20T07:31:33.642Z,10.60
2023-03-20T07:34:01.173Z,10.95
2023-03-20T07:36:28.646Z,11.63
2023-03-20T07:38:57.491Z,11.96
2023-03-20T07:41:24.930Z,11.98
2023-03-20T07:43:52.422Z,12.16
2023-03-20T07:46:19.896Z,12.34
2023-03-20T07:48:47.552Z,12.02
2023-03-20T07:51:15.034Z,11.73
2023-03-20T07:53:42.487Z,11.49
2023-03-20T07:56:11.638Z,11.31
2023-03-20T07:58:39.114Z,11.46
2023-03-20T08:01:06.820Z,11.29
2023-03-20T08:03:34.390Z,10.44
2023-03-20T08:06:04.119Z,9.86
2023-03-20T08:08:31.849Z,9.98
2023-03-20T08:10:59.476Z,10.00
2023-03-20T08:13:28.359Z,10.17
2023-03-20T08:15:55.824Z,10.65
2023-03-20T08:18:23.387Z,11.09
2023-03-20T08:20:51.350Z,10.85
2023-03-20T08:23:20.731Z,11.22
2023-03-20T08:25:49.532Z,10.36
2023-03-20T08:28:17.069Z,10.62
2023-03-20T08:30:45.957Z,10.47
2023-03-20T08:33:14.552Z,10.50
2023-03-20T08:35:43.108Z,10.85
2023-03-20T08:38:13.190Z,10.97
2023-03-20T08:40:41.590Z,11.93
2023-03-20T08:43:09.307Z,12.45
2023-03-20T08:45:37.248Z,13.20
2023-03-20T08:48:06.518Z,12.83
2023-03-20T08:50:34.064Z,12.95
2023-03-20T08:53:01.566Z,13.60
2023-03-20T08:55:29.276Z,12.54
2023-03-20T08:57:57.395Z,12.08
2023-03-20T09:00:25.671Z,12.85
2023-03-20T09:02:53.196Z,12.47
2023-03-20T09:05:22.072Z,12.94
2023-03-20T09:07:49.545Z,12.30
2023-03-20T09:10:17.298Z,11.43
2023-03-20T09:12:44.785Z,11.80
2023-03-20T09:15:12.673Z,11.62
2023-03-20T09:17:40.258Z,11.98
2023-03-20T09:20:08.924Z,12.14
2023-03-20T09:22:41.050Z,13.26
2023-03-20T09:25:09.600Z,14.19
2023-03-20T09:27:37.095Z,14.33
2023-03-20T09:30:05.877Z,15.16
2023-03-20T09:32:34.676Z,14.62
2023-03-20T09:35:02.397Z,14.26
2023-03-20T09:37:30.595Z,13.92
2023-03-20T09:39:59.386Z,14.43
2023-03-20T09:42:35.854Z,14.29
2023-03-20T09:45:09.895Z,15.09
2023-03-20T09:47:47.187Z,16.15
2023-03-20T09:50:26.665Z,16.05
2023-03-20T09:53:00.361Z,16.03
2023-03-20T09:55:35.133Z,15.35
2023-03-20T09:58:08.382Z,15.44
2023-03-20T10:00:37.268Z,15.39
2023-03-20T10:03:07.173Z,15.75
2023-03-20T10:05:38.792Z,15.92
2023-03-20T10:08:08.752Z,16.05
2023-03-20T10:10:47.349Z,16.47
2023-03-20T10:13:44.823Z,16.67
2023-03-20T10:16:20.696Z,16.41
2023-03-20T10:18:57.175Z,16.48
2023-03-20T10:21:33.472Z,16.98
2023-03-20T10:24:04.164Z,17.39
2023-03-20T10:26:35.913Z,17.10
2023-03-20T10:29:08.427Z,17.26
2023-03-20T10:31:44.393Z,18.61
2023-03-20T10:34:27.171Z,18.03
2023-03-20T10:37:06.256Z,19.30
2023-03-20T10:39:50.244Z,19.37
2023-03-20T10:42:22.771Z,20.02
2023-03-20T10:44:56.535Z,19.58
2023-03-20T10:47:27.804Z,20.11
2023-03-20T10:49:59.286Z,20.52
2023-03-20T10:52:30.116Z,20.71
2023-03-20T10:55:01.239Z,21.46
2023-03-20T10:57:32.478Z,22.12
2023-03-20T11:00:00.780Z,21.31
2023-03-20T11:02:30.891Z,21.24
2023-03-20T11:05:01.504Z,19.58
2023-03-20T11:07:33.685Z,15.42
2023-03-20T11:10:14.007Z,15.06
2023-03-20T11:12:44.926Z,15.42
2023-03-20T11:15:21.487Z,14.56
2023-03-20T11:17:56.021Z,14.19
2023-03-20T11:20:25.150Z,14.68
2023-03-20T11:22:59.750Z,15.11
2023-03-20T11:25:31.958Z,14.59
2023-03-20T11:28:20.854Z,14.63
2023-03-20T11:31:03.970Z,15.26
2023-03-20T11:33:34.905Z,14.65
2023-03-20T11:36:02.490Z,13.95
2023-03-20T11:38:31.868Z,13.81
2023-03-20T11:40:59.331Z,13.54
2023-03-20T11:43:28.909Z,13.62
2023-03-20T11:46:00.533Z,13.44
2023-03-20T11:48:38.885Z,12.85
2023-03-20T11:51:09.341Z,13.02
2023-03-20T11:53:40.284Z,13.12
2023-03-20T11:56:11.802Z,13.46
2023-03-20T11:58:55.962Z,12.99
2023-03-20T12:01:24.098Z,12.95
2023-03-20T12:03:55.486Z,12.98
2023-03-20T12:06:27.069Z,12.93
2023-03-20T12:09:01.225Z,12.88
2023-03-20T12:11:41.288Z,12.71
2023-03-20T12:14:20.842Z,12.74
2023-03-20T12:16:53.002Z,12.78
2023-03-20T12:19:26.983Z,12.83
2023-03-20T12:22:03.554Z,13.34
2023-03-20T12:24:37.902Z,13.43
2023-03-20T12:27:20.891Z,13.18
2023-03-20T12:29:53.366Z,13.40
2023-03-20T12:32:26.645Z,13.66
2023-03-20T12:34:58.767Z,13.61
2023-03-20T12:37:26.923Z,13.69
2023-03-20T12:39:56.944Z,13.24
2023-03-20T12:42:37.638Z,13.18
2023-03-20T12:45:11.597Z,13.42
2023-03-20T12:48:11.949Z,12.93
2023-03-20T12:50:42.095Z,13.16
2023-03-20T12:53:31.945Z,13.72
2023-03-20T12:56:12.140Z,14.31
2023-03-20T12:58:44.922Z,14.24
2023-03-20T13:01:20.514Z,14.68
2023-03-20T13:04:16.027Z,14.36
2023-03-20T13:06:52.414Z,14.39
2023-03-20T13:09:57.085Z,14.46
2023-03-20T13:12:37.221Z,13.76
2023-03-20T13:15:16.208Z,14.10
2023-03-20T13:17:51.206Z,13.80
2023-03-20T13:20:23.112Z,13.49
2023-03-20T13:23:01.399Z,13.57
2023-03-20T13:25:45.635Z,13.53
2023-03-20T13:28:22.562Z,13.62
2023-03-20T13:30:56.257Z,13.72
2023-03-20T13:33:41.756Z,13.57
2023-03-20T13:36:24.250Z,13.57
2023-03-20T13:38:58.697Z,14.36
2023-03-20T13:41:27.980Z,14.75
2023-03-20T13:44:00.996Z,14.84
2023-03-20T13:46:34.240Z,14.48
2023-03-20T13:49:08.835Z,13.54
2023-03-20T13:51:43.523Z,13.28
2023-03-20T13:54:20.814Z,13.10
2023-03-20T13:56:54.587Z,13.36
2023-03-20T13:59:47.573Z,13.57
2023-03-20T14:02:28.970Z,13.60
2023-03-20T14:05:04.069Z,14.41
2023-03-20T14:07:33.587Z,14.18
2023-03-20T14:10:36.017Z,14.19
2023-03-20T14:13:07.715Z,14.38
2023-03-20T14:15:37.817Z,14.65
2023-03-20T14:18:08.372Z,15.03
2023-03-20T14:20:40.348Z,15.35
2023-03-20T14:23:17.300Z,15.70
2023-03-20T14:25:45.625Z,15.49
2023-03-20T14:28:28.334Z,15.26
2023-03-20T14:31:20.402Z,15.19
2023-03-20T14:33:58.761Z,15.20
2023-03-20T14:36:30.872Z,15.58
2023-03-20T14:39:06.661Z,15.58
2023-03-20T14:41:42.542Z,15.46
2023-03-20T14:44:25.146Z,15.63
2023-03-20T14:46:57.404Z,15.09
2023-03-20T14:49:35.888Z,14.83
2023-03-20T14:52:21.054Z,14.70
2023-03-20T14:54:53.248Z,14.75
2023-03-20T14:57:35.766Z,14.87
2023-03-20T15:00:19.076Z,14.74
2023-03-20T15:02:49.671Z,15.11
2023-03-20T15:05:29.046Z,14.62
2023-03-20T15:08:04.022Z,14.51
2023-03-20T15:10:31.715Z,15.03
2023-03-20T15:12:59.378Z,15.48
2023-03-20T15:15:29.160Z,15.59
2023-03-20T15:17:56.645Z,15.61
2023-03-20T15:20:26.520Z,15.68
2023-03-20T15:22:57.889Z,15.50
2023-03-20T15:25:31.929Z,14.89
2023-03-20T15:27:59.882Z,14.79
2023-03-20T15:30:27.970Z,14.60
2023-03-20T15:32:56.300Z,14.36
2023-03-20T15:35:27.403Z,14.87
2023-03-20T15:37:58.033Z,14.96
2023-03-20T15:40:34.565Z,15.48
2023-03-20T15:43:14.172Z,15.64
2023-03-20T15:45:43.865Z,15.17
2023-03-20T15:48:15.312Z,15.53
2023-03-20T15:50:46.160Z,15.55
2023-03-20T15:53:19.104Z,15.99
2023-03-20T15:55:51.699Z,15.33
2023-03-20T15:58:20.038Z,14.94
2023-03-20T16:00:50.228Z,15.16
2023-03-20T16:03:20.504Z,14.96
2023-03-20T16:05:50.133Z,14.86
2023-03-20T16:08:24.021Z,14.90
2023-03-20T16:10:57.255Z,14.79
2023-03-20T16:13:26.102Z,14.61
2023-03-20T16:15:54.561Z,14.88
2023-03-20T16:18:22.751Z,14.71
2023-03-20T16:20:54.696Z,14.66
2023-03-20T16:23:34.387Z,14.88
2023-03-20T16:26:05.800Z,14.67
2023-03-20T16:28:37.218Z,14.79
2023-03-20T16:31:09.682Z,14.95
2023-03-20T16:33:39.969Z,15.26
2023-03-20T16:36:08.298Z,15.25
2023-03-20T16:38:38.121Z,15.27
2023-03-20T16:41:23.254Z,14.18
2023-03-20T16:43:51.598Z,13.40
2023-03-20T16:46:23.038Z,13.23
2023-03-20T16:48:53.294Z,12.55
2023-03-20T16:51:24.249Z,12.21
2023-03-20T16:53:56.276Z,12.51
2023-03-20T16:56:29.443Z,12.54
2023-03-20T16:58:57.285Z,12.57
2023-03-20T17:01:27.805Z,12.47
2023-03-20T17:03:57.339Z,13.26
2023-03-20T17:06:38.266Z,13.20
2023-03-20T17:09:28.074Z,12.67
2023-03-20T17:12:03.600Z,12.39
2023-03-20T17:14:31.187Z,12.40
2023-03-20T17:17:00.173Z,12.34
2023-03-20T17:19:27.775Z,12.16
2023-03-20T17:21:55.466Z,12.55
2023-03-20T17:24:23.033Z,12.60
2023-03-20T17:26:54.238Z,12.77
2023-03-20T17:29:23.068Z,12.15
2023-03-20T17:31:50.727Z,12.27
2023-03-20T17:34:18.229Z,12.11
2023-03-20T17:36:46.069Z,12.13
2023-03-20T17:39:19.181Z,11.64
2023-03-20T17:41:47.169Z,11.81
2023-03-20T17:44:14.689Z,11.84
2023-03-20T17:46:57.147Z,11.75
2023-03-20T17:49:27.141Z,12.15
2023-03-20T17:51:55.542Z,12.12
2023-03-20T17:54:23.011Z,11.94
2023-03-20T17:56:50.613Z,11.82
2023-03-20T17:59:18.091Z,11.69
2023-03-20T18:01:46.971Z,11.22
2023-03-20T18:04:14.459Z,11.18
2023-03-20T18:06:41.927Z,11.20
2023-03-20T18:09:14.588Z,10.89
2023-03-20T18:11:42.090Z,10.90
2023-03-20T18:14:12.121Z,10.92
2023-03-20T18:16:39.625Z,10.82
2023-03-20T18:19:20.278Z,10.81
2023-03-20T18:21:47.746Z,10.67
2023-03-20T18:24:15.256Z,10.47
2023-03-20T18:26:44.105Z,10.45
2023-03-20T18:29:12.570Z,10.46
2023-03-20T18:31:42.407Z,10.36
2023-03-20T18:34:12.546Z,10.43
2023-03-20T18:36:40.245Z,10.58
2023-03-20T18:39:08.216Z,10.70
2023-03-20T18:41:35.832Z,10.52
2023-03-20T18:44:03.258Z,10.45
2023-03-20T18:46:30.990Z,10.34
2023-03-20T18:48:58.918Z,10.21
2023-03-20T18:51:27.731Z,10.30
2023-03-20T18:53:55.276Z,10.27
2023-03-20T18:56:25.319Z,10.05
2023-03-20T18:58:53.892Z,10.27
2023-03-20T19:01:21.794Z,10.45
2023-03-20T19:03:49.805Z,10.68
2023-03-20T19:06:19.127Z,10.94
2023-03-20T19:08:49.604Z,10.94
2023-03-20T19:11:21.006Z,10.61
2023-03-20T19:13:51.048Z,10.70
2023-03-20T19:16:24.400Z,10.49
2023-03-20T19:18:53.037Z,10.29
2023-03-20T19:21:25.808Z,10.09
2023-03-20T19:23:55.387Z,9.98
2023-03-20T19:26:24.455Z,10.08
2023-03-20T19:28:52.915Z,10.39
2023-03-20T19:31:21.157Z,10.50
2023-03-20T19:33:49.130Z,10.81
2023-03-20T19:36:24.204Z,10.97
2023-03-20T19:38:51.953Z,10.77
2023-03-20T19:41:20.955Z,10.75
2023-03-20T19:43:52.928Z,10.26
2023-03-20T19:46:38.642Z,10.18
2023-03-20T19:49:07.076Z,9.90
2023-03-20T19:51:34.706Z,10.01
2023-03-20T19:54:02.157Z,9.89
2023-03-20T19:56:31.161Z,9.66
2023-03-20T19:58:58.633Z,9.78
2023-03-20T20:01:26.329Z,10.64
2023-03-20T20:03:54.986Z,10.96
2023-03-20T20:06:29.506Z,11.22
2023-03-20T20:08:58.673Z,11.27
2023-03-20T20:11:26.169Z,11.16
2023-03-20T20:14:06.739Z,11.07
2023-03-20T20:16:35.792Z,11.03
2023-03-20T20:19:03.514Z,10.95
2023-03-20T20:24:18.487Z,10.84
2023-03-20T20:26:54.755Z,10.81
2023-03-20T20:29:28.629Z,10.72
2023-03-20T20:31:56.194Z,10.69
2023-03-20T20:39:59.026Z,10.58
2023-03-20T20:42:26.641Z,10.70
2023-03-20T20:44:55.441Z,10.80
2023-03-20T20:47:22.914Z,10.83
2023-03-20T20:49:50.460Z,10.89
2023-03-20T20:52:17.934Z,10.97
2023-03-20T20:54:45.571Z,11.03
2023-03-20T20:57:14.237Z,11.05
2023-03-20T20:59:41.857Z,11.11
2023-03-20T21:02:12.012Z,11.17
2023-03-20T21:04:40.468Z,11.18
2023-03-20T21:07:10.816Z,11.06
2023-03-20T21:09:38.793Z,11.08
2023-03-20T21:12:08.253Z,11.11
2023-03-20T21:14:36.094Z,11.08
2023-03-20T21:17:03.760Z,11.11
2023-03-20T21:19:35.479Z,11.18
2023-03-20T21:22:02.956Z,11.11
2023-03-20T21:24:34.028Z,11.08
2023-03-20T21:27:02.767Z,11.10
2023-03-20T21:29:30.633Z,11.11
2023-03-20T21:31:58.178Z,11.10
2023-03-20T21:34:25.950Z,11.13
2023-03-20T21:36:54.816Z,11.02
2023-03-20T21:39:22.658Z,11.08
2023-03-20T21:41:50.257Z,10.94
2023-03-20T21:44:24.535Z,10.78
2023-03-20T22:01:45.972Z,10.10
2023-03-20T22:10:18.351Z,9.46
2023-03-20T22:16:04.288Z,9.33
2023-03-20T22:18:42.162Z,9.26
2023-03-20T22:21:41.822Z,9.23
2023-03-20T22:27:06.294Z,9.28
2023-03-20T22:32:44.108Z,9.99
2023-03-20T22:41:09.804Z,10.42
2023-03-20T22:46:10.076Z,10.90
2023-03-20T22:48:41.928Z,10.86
2023-03-20T22:51:09.461Z,10.71
2023-03-20T22:53:37.072Z,10.77
2023-03-20T22:56:04.856Z,10.72
2023-03-20T22:58:33.954Z,10.98
2023-03-20T23:01:01.647Z,11.47
2023-03-20T23:03:40.954Z,11.47
2023-03-20T23:06:11.309Z,11.63
2023-03-20T23:08:50.395Z,11.30
2023-03-20T23:11:22.302Z,11.11
2023-03-20T23:13:51.463Z,11.51
2023-03-20T23:16:19.177Z,11.50
2023-03-20T23:18:46.752Z,11.24
2023-03-20T23:21:14.284Z,10.59
2023-03-20T23:23:41.786Z,10.67
2023-03-20T23:26:11.539Z,10.48
2023-03-20T23:28:40.107Z,10.53
2023-03-20T23:31:11.894Z,11.02
2023-03-20T23:33:40.146Z,11.05
2023-03-20T23:36:24.773Z,11.19
2023-03-20T23:38:56.308Z,11.52
2023-03-20T23:41:49.335Z,11.53
2023-03-20T23:44:11.340Z,11.26
2023-03-20T23:46:40.177Z,11.08
2023-03-20T23:49:07.732Z,11.15
2023-03-20T23:51:35.282Z,11.01
2023-03-20T23:54:02.762Z,10.91
2023-03-20T23:56:30.230Z,10.80
2023-03-20T23:59:03.251Z,10.75
